sensor_id;sensor_type;location;lat;lon;timestamp;P1;durP1;ratioP1;P2;durP2;ratioP2
55800;SDS011;41730;51.960;20.158;2023-10-09T00:01:52;7.60;;;3.70;;
55800;SDS011;41730;51.960;20.158;2023-10-09T00:04:24;7.60;;;3.40;;
55800;SDS011;41730;51.960;20.158;2023-10-09T00:06:56;6.90;;;3.20;;
55800;SDS011;41730;51.960;20.158;2023-10-09T00:09:29;6.00;;;2.90;;
55800;SDS011;41730;51.960;20.158;2023-10-09T00:12:02;6.70;;;2.60;;
55800;SDS011;41730;51.960;20.158;2023-10-09T00:14:39;5.50;;;2.30;;
55800;SDS011;41730;51.960;20.158;2023-10-09T00:17:16;5.80;;;2.70;;
55800;SDS011;41730;51.960;20.158;2023-10-09T00:19:50;6.70;;;3.00;;
55800;SDS011;41730;51.960;20.158;2023-10-09T00:22:28;5.90;;;2.90;;
55800;SDS011;41730;51.960;20.158;2023-10-09T00:25:08;8.80;;;3.20;;
55800;SDS011;41730;51.960;20.158;2023-10-09T00:27:40;6.50;;;3.30;;
55800;SDS011;41730;51.960;20.158;2023-10-09T00:30:14;6.80;;;2.80;;
55800;SDS011;41730;51.960;20.158;2023-10-09T00:32:49;10.00;;;4.00;;
55800;SDS011;41730;51.960;20.158;2023-10-09T00:35:28;7.30;;;2.90;;
55800;SDS011;41730;51.960;20.158;2023-10-09T00:38:07;10.50;;;3.00;;
55800;SDS011;41730;51.960;20.158;2023-10-09T00:40:51;6.60;;;2.70;;
55800;SDS011;41730;51.960;20.158;2023-10-09T00:43:32;6.30;;;2.90;;
55800;SDS011;41730;51.960;20.158;2023-10-09T00:46:06;6.60;;;2.80;;
55800;SDS011;41730;51.960;20.158;2023-10-09T00:48:53;5.90;;;2.80;;
55800;SDS011;41730;51.960;20.158;2023-10-09T00:51:29;6.30;;;3.10;;
55800;SDS011;41730;51.960;20.158;2023-10-09T00:54:05;6.40;;;3.10;;
55800;SDS011;41730;51.960;20.158;2023-10-09T00:56:43;5.50;;;3.00;;
55800;SDS011;41730;51.960;20.158;2023-10-09T00:59:25;5.80;;;2.70;;
55800;SDS011;41730;51.960;20.158;2023-10-09T01:01:58;5.80;;;3.10;;
55800;SDS011;41730;51.960;20.158;2023-10-09T01:04:33;5.50;;;2.70;;
55800;SDS011;41730;51.960;20.158;2023-10-09T01:07:09;5.60;;;2.90;;
55800;SDS011;41730;51.960;20.158;2023-10-09T01:09:44;6.00;;;3.00;;
55800;SDS011;41730;51.960;20.158;2023-10-09T01:12:19;6.50;;;3.10;;
55800;SDS011;41730;51.960;20.158;2023-10-09T01:14:51;8.70;;;3.60;;
55800;SDS011;41730;51.960;20.158;2023-10-09T01:17:24;7.10;;;3.50;;
55800;SDS011;41730;51.960;20.158;2023-10-09T01:20:06;7.50;;;3.50;;
55800;SDS011;41730;51.960;20.158;2023-10-09T01:22:45;7.50;;;3.90;;
55800;SDS011;41730;51.960;20.158;2023-10-09T01:25:19;7.50;;;3.50;;
55800;SDS011;41730;51.960;20.158;2023-10-09T01:27:51;7.00;;;3.30;;
55800;SDS011;41730;51.960;20.158;2023-10-09T01:30:25;8.30;;;3.50;;
55800;SDS011;41730;51.960;20.158;2023-10-09T01:32:57;7.20;;;3.50;;
55800;SDS011;41730;51.960;20.158;2023-10-09T01:35:40;6.20;;;3.10;;
55800;SDS011;41730;51.960;20.158;2023-10-09T01:38:17;7.00;;;3.20;;
55800;SDS011;41730;51.960;20.158;2023-10-09T01:40:58;6.10;;;3.10;;
55800;SDS011;41730;51.960;20.158;2023-10-09T01:43:36;7.10;;;2.80;;
55800;SDS011;41730;51.960;20.158;2023-10-09T01:46:07;8.00;;;2.90;;
55800;SDS011;41730;51.960;20.158;2023-10-09T01:48:39;5.70;;;3.00;;
55800;SDS011;41730;51.960;20.158;2023-10-09T01:51:15;6.00;;;2.90;;
55800;SDS011;41730;51.960;20.158;2023-10-09T01:53:47;7.70;;;3.10;;
55800;SDS011;41730;51.960;20.158;2023-10-09T01:56:25;7.50;;;2.90;;
55800;SDS011;41730;51.960;20.158;2023-10-09T01:58:56;5.90;;;3.20;;
55800;SDS011;41730;51.960;20.158;2023-10-09T02:01:33;6.10;;;2.50;;
55800;SDS011;41730;51.960;20.158;2023-10-09T02:04:10;6.30;;;2.80;;
55800;SDS011;41730;51.960;20.158;2023-10-09T02:06:48;7.20;;;3.20;;
55800;SDS011;41730;51.960;20.158;2023-10-09T02:09:21;4.70;;;2.70;;
55800;SDS011;41730;51.960;20.158;2023-10-09T02:11:59;5.80;;;2.70;;
55800;SDS011;41730;51.960;20.158;2023-10-09T02:14:31;5.80;;;2.40;;
55800;SDS011;41730;51.960;20.158;2023-10-09T02:17:09;7.20;;;2.90;;
55800;SDS011;41730;51.960;20.158;2023-10-09T02:19:46;5.50;;;2.70;;
55800;SDS011;41730;51.960;20.158;2023-10-09T02:22:18;5.90;;;3.30;;
55800;SDS011;41730;51.960;20.158;2023-10-09T02:24:54;7.10;;;3.20;;
55800;SDS011;41730;51.960;20.158;2023-10-09T02:27:33;6.20;;;3.10;;
55800;SDS011;41730;51.960;20.158;2023-10-09T02:30:22;7.60;;;3.60;;
55800;SDS011;41730;51.960;20.158;2023-10-09T02:32:56;7.50;;;3.90;;
55800;SDS011;41730;51.960;20.158;2023-10-09T02:35:35;6.50;;;3.20;;
55800;SDS011;41730;51.960;20.158;2023-10-09T02:38:07;5.30;;;3.00;;
55800;SDS011;41730;51.960;20.158;2023-10-09T02:40:42;8.30;;;3.40;;
55800;SDS011;41730;51.960;20.158;2023-10-09T02:46:02;7.60;;;3.70;;
55800;SDS011;41730;51.960;20.158;2023-10-09T02:48:42;8.20;;;3.50;;
55800;SDS011;41730;51.960;20.158;2023-10-09T02:51:19;6.90;;;3.00;;
55800;SDS011;41730;51.960;20.158;2023-10-09T02:54:01;8.20;;;3.60;;
55800;SDS011;41730;51.960;20.158;2023-10-09T02:56:47;7.80;;;2.60;;
55800;SDS011;41730;51.960;20.158;2023-10-09T02:59:25;6.10;;;3.10;;
55800;SDS011;41730;51.960;20.158;2023-10-09T03:01:58;7.50;;;3.40;;
55800;SDS011;41730;51.960;20.158;2023-10-09T03:04:29;5.70;;;2.70;;
55800;SDS011;41730;51.960;20.158;2023-10-09T03:07:01;7.70;;;2.60;;
55800;SDS011;41730;51.960;20.158;2023-10-09T03:09:34;7.30;;;3.20;;
55800;SDS011;41730;51.960;20.158;2023-10-09T03:12:06;6.10;;;2.90;;
55800;SDS011;41730;51.960;20.158;2023-10-09T03:14:41;6.30;;;2.90;;
55800;SDS011;41730;51.960;20.158;2023-10-09T03:17:13;6.70;;;3.00;;
55800;SDS011;41730;51.960;20.158;2023-10-09T03:19:44;5.90;;;3.00;;
55800;SDS011;41730;51.960;20.158;2023-10-09T03:22:16;5.90;;;3.20;;
55800;SDS011;41730;51.960;20.158;2023-10-09T03:24:48;5.60;;;3.00;;
55800;SDS011;41730;51.960;20.158;2023-10-09T03:27:21;6.50;;;3.20;;
55800;SDS011;41730;51.960;20.158;2023-10-09T03:29:56;7.30;;;3.10;;
55800;SDS011;41730;51.960;20.158;2023-10-09T03:32:35;6.70;;;3.30;;
55800;SDS011;41730;51.960;20.158;2023-10-09T03:35:10;8.60;;;3.70;;
55800;SDS011;41730;51.960;20.158;2023-10-09T03:37:45;6.90;;;3.80;;
55800;SDS011;41730;51.960;20.158;2023-10-09T03:40:16;7.10;;;3.60;;
55800;SDS011;41730;51.960;20.158;2023-10-09T03:42:50;7.50;;;3.50;;
55800;SDS011;41730;51.960;20.158;2023-10-09T03:45:22;8.60;;;3.60;;
55800;SDS011;41730;51.960;20.158;2023-10-09T03:47:56;11.50;;;4.50;;
55800;SDS011;41730;51.960;20.158;2023-10-09T03:50:31;7.40;;;4.30;;
55800;SDS011;41730;51.960;20.158;2023-10-09T03:53:06;7.20;;;3.80;;
55800;SDS011;41730;51.960;20.158;2023-10-09T03:55:40;7.70;;;3.50;;
55800;SDS011;41730;51.960;20.158;2023-10-09T03:58:12;9.10;;;3.90;;
55800;SDS011;41730;51.960;20.158;2023-10-09T04:00:47;8.50;;;4.10;;
55800;SDS011;41730;51.960;20.158;2023-10-09T04:03:20;8.70;;;4.50;;
55800;SDS011;41730;51.960;20.158;2023-10-09T04:05:53;7.80;;;3.90;;
55800;SDS011;41730;51.960;20.158;2023-10-09T04:08:25;8.20;;;4.60;;
55800;SDS011;41730;51.960;20.158;2023-10-09T04:10:58;9.90;;;4.60;;
55800;SDS011;41730;51.960;20.158;2023-10-09T04:13:32;7.90;;;4.40;;
55800;SDS011;41730;51.960;20.158;2023-10-09T04:16:05;9.30;;;4.30;;
55800;SDS011;41730;51.960;20.158;2023-10-09T04:19:02;9.30;;;4.70;;
55800;SDS011;41730;51.960;20.158;2023-10-09T04:21:37;7.90;;;4.20;;
55800;SDS011;41730;51.960;20.158;2023-10-09T04:24:10;9.10;;;4.40;;
55800;SDS011;41730;51.960;20.158;2023-10-09T04:26:54;8.60;;;4.10;;
55800;SDS011;41730;51.960;20.158;2023-10-09T04:29:26;8.50;;;4.50;;
55800;SDS011;41730;51.960;20.158;2023-10-09T04:32:07;10.30;;;4.70;;
55800;SDS011;41730;51.960;20.158;2023-10-09T04:34:46;9.00;;;4.50;;
55800;SDS011;41730;51.960;20.158;2023-10-09T04:37:24;7.60;;;4.30;;
55800;SDS011;41730;51.960;20.158;2023-10-09T04:40:08;9.80;;;5.10;;
55800;SDS011;41730;51.960;20.158;2023-10-09T04:42:42;10.20;;;4.90;;
55800;SDS011;41730;51.960;20.158;2023-10-09T04:45:26;8.70;;;4.50;;
55800;SDS011;41730;51.960;20.158;2023-10-09T04:48:15;10.10;;;4.50;;
55800;SDS011;41730;51.960;20.158;2023-10-09T04:51:01;10.10;;;4.80;;
55800;SDS011;41730;51.960;20.158;2023-10-09T04:53:50;10.80;;;5.40;;
55800;SDS011;41730;51.960;20.158;2023-10-09T04:56:41;10.40;;;4.90;;
55800;SDS011;41730;51.960;20.158;2023-10-09T04:59:20;10.00;;;4.60;;
55800;SDS011;41730;51.960;20.158;2023-10-09T05:01:53;10.20;;;5.50;;
55800;SDS011;41730;51.960;20.158;2023-10-09T05:04:29;10.40;;;6.10;;
55800;SDS011;41730;51.960;20.158;2023-10-09T05:07:09;11.00;;;5.80;;
55800;SDS011;41730;51.960;20.158;2023-10-09T05:09:53;9.50;;;5.60;;
55800;SDS011;41730;51.960;20.158;2023-10-09T05:12:43;9.80;;;5.30;;
55800;SDS011;41730;51.960;20.158;2023-10-09T05:15:25;9.10;;;4.40;;
55800;SDS011;41730;51.960;20.158;2023-10-09T05:17:58;10.70;;;4.90;;
55800;SDS011;41730;51.960;20.158;2023-10-09T05:20:38;8.10;;;4.60;;
55800;SDS011;41730;51.960;20.158;2023-10-09T05:23:34;9.10;;;4.90;;
55800;SDS011;41730;51.960;20.158;2023-10-09T05:26:12;9.60;;;4.30;;
55800;SDS011;41730;51.960;20.158;2023-10-09T05:29:05;8.00;;;4.50;;
55800;SDS011;41730;51.960;20.158;2023-10-09T05:31:47;11.70;;;5.90;;
55800;SDS011;41730;51.960;20.158;2023-10-09T05:34:31;11.10;;;5.30;;
55800;SDS011;41730;51.960;20.158;2023-10-09T05:37:24;10.10;;;5.40;;
55800;SDS011;41730;51.960;20.158;2023-10-09T05:40:03;11.30;;;5.40;;
55800;SDS011;41730;51.960;20.158;2023-10-09T05:42:51;11.40;;;5.10;;
55800;SDS011;41730;51.960;20.158;2023-10-09T05:48:28;9.20;;;4.80;;
55800;SDS011;41730;51.960;20.158;2023-10-09T05:51:40;11.40;;;5.40;;
55800;SDS011;41730;51.960;20.158;2023-10-09T05:54:22;12.90;;;5.70;;
55800;SDS011;41730;51.960;20.158;2023-10-09T05:57:12;13.10;;;5.40;;
55800;SDS011;41730;51.960;20.158;2023-10-09T06:00:16;10.30;;;5.40;;
55800;SDS011;41730;51.960;20.158;2023-10-09T06:03:06;9.30;;;5.00;;
55800;SDS011;41730;51.960;20.158;2023-10-09T06:05:56;11.80;;;5.20;;
55800;SDS011;41730;51.960;20.158;2023-10-09T06:08:33;11.50;;;5.60;;
55800;SDS011;41730;51.960;20.158;2023-10-09T06:11:22;9.00;;;4.70;;
55800;SDS011;41730;51.960;20.158;2023-10-09T06:14:14;10.50;;;5.20;;
55800;SDS011;41730;51.960;20.158;2023-10-09T06:16:53;19.50;;;8.60;;
55800;SDS011;41730;51.960;20.158;2023-10-09T06:19:52;28.80;;;14.80;;
55800;SDS011;41730;51.960;20.158;2023-10-09T06:22:48;27.40;;;16.90;;
55800;SDS011;41730;51.960;20.158;2023-10-09T06:25:26;21.60;;;14.80;;
55800;SDS011;41730;51.960;20.158;2023-10-09T06:28:03;27.70;;;16.60;;
55800;SDS011;41730;51.960;20.158;2023-10-09T06:30:40;22.30;;;12.90;;
55800;SDS011;41730;51.960;20.158;2023-10-09T06:33:15;15.70;;;10.20;;
55800;SDS011;41730;51.960;20.158;2023-10-09T06:35:58;14.40;;;9.30;;
55800;SDS011;41730;51.960;20.158;2023-10-09T06:38:36;15.00;;;8.70;;
55800;SDS011;41730;51.960;20.158;2023-10-09T06:41:20;12.60;;;6.70;;
55800;SDS011;41730;51.960;20.158;2023-10-09T06:44:06;11.70;;;6.60;;
55800;SDS011;41730;51.960;20.158;2023-10-09T06:46:57;10.90;;;6.10;;
55800;SDS011;41730;51.960;20.158;2023-10-09T06:49:36;15.10;;;5.60;;
55800;SDS011;41730;51.960;20.158;2023-10-09T06:52:28;13.40;;;4.80;;
55800;SDS011;41730;51.960;20.158;2023-10-09T06:55:13;10.90;;;4.60;;
55800;SDS011;41730;51.960;20.158;2023-10-09T06:57:48;9.30;;;4.00;;
55800;SDS011;41730;51.960;20.158;2023-10-09T07:00:22;8.30;;;4.20;;
55800;SDS011;41730;51.960;20.158;2023-10-09T07:03:12;10.70;;;4.40;;
55800;SDS011;41730;51.960;20.158;2023-10-09T07:05:48;8.20;;;4.40;;
55800;SDS011;41730;51.960;20.158;2023-10-09T07:08:38;7.80;;;4.00;;
55800;SDS011;41730;51.960;20.158;2023-10-09T07:11:26;7.80;;;4.30;;
55800;SDS011;41730;51.960;20.158;2023-10-09T07:14:12;8.70;;;4.40;;
55800;SDS011;41730;51.960;20.158;2023-10-09T07:17:01;8.50;;;4.10;;
55800;SDS011;41730;51.960;20.158;2023-10-09T07:19:44;9.90;;;4.50;;
55800;SDS011;41730;51.960;20.158;2023-10-09T07:22:37;8.00;;;4.60;;
55800;SDS011;41730;51.960;20.158;2023-10-09T07:25:21;10.80;;;4.10;;
55800;SDS011;41730;51.960;20.158;2023-10-09T07:28:25;11.00;;;4.90;;
55800;SDS011;41730;51.960;20.158;2023-10-09T07:31:20;9.80;;;4.80;;
55800;SDS011;41730;51.960;20.158;2023-10-09T07:34:08;10.60;;;5.20;;
55800;SDS011;41730;51.960;20.158;2023-10-09T07:36:54;9.70;;;4.70;;
55800;SDS011;41730;51.960;20.158;2023-10-09T07:39:33;9.10;;;4.70;;
55800;SDS011;41730;51.960;20.158;2023-10-09T07:42:18;10.70;;;4.90;;
55800;SDS011;41730;51.960;20.158;2023-10-09T07:44:57;11.00;;;4.90;;
55800;SDS011;41730;51.960;20.158;2023-10-09T07:47:41;8.90;;;4.80;;
55800;SDS011;41730;51.960;20.158;2023-10-09T07:50:36;9.30;;;4.30;;
55800;SDS011;41730;51.960;20.158;2023-10-09T07:53:17;7.80;;;4.40;;
55800;SDS011;41730;51.960;20.158;2023-10-09T07:55:54;9.30;;;4.30;;
55800;SDS011;41730;51.960;20.158;2023-10-09T07:58:28;7.90;;;4.00;;
55800;SDS011;41730;51.960;20.158;2023-10-09T08:03:44;8.60;;;4.40;;
55800;SDS011;41730;51.960;20.158;2023-10-09T08:06:26;8.80;;;4.20;;
55800;SDS011;41730;51.960;20.158;2023-10-09T08:09:32;7.70;;;4.30;;
55800;SDS011;41730;51.960;20.158;2023-10-09T08:12:16;6.90;;;3.60;;
55800;SDS011;41730;51.960;20.158;2023-10-09T08:15:23;7.10;;;4.00;;
55800;SDS011;41730;51.960;20.158;2023-10-09T08:18:03;9.50;;;3.90;;
55800;SDS011;41730;51.960;20.158;2023-10-09T08:20:42;12.30;;;4.70;;
55800;SDS011;41730;51.960;20.158;2023-10-09T08:23:27;8.80;;;4.40;;
55800;SDS011;41730;51.960;20.158;2023-10-09T08:26:02;8.90;;;4.50;;
55800;SDS011;41730;51.960;20.158;2023-10-09T08:28:44;9.10;;;5.00;;
55800;SDS011;41730;51.960;20.158;2023-10-09T08:31:19;12.30;;;4.80;;
55800;SDS011;41730;51.960;20.158;2023-10-09T08:34:14;8.80;;;4.70;;
55800;SDS011;41730;51.960;20.158;2023-10-09T08:36:59;9.00;;;4.80;;
55800;SDS011;41730;51.960;20.158;2023-10-09T08:39:32;8.20;;;4.90;;
55800;SDS011;41730;51.960;20.158;2023-10-09T08:42:05;9.30;;;4.60;;
55800;SDS011;41730;51.960;20.158;2023-10-09T08:44:42;9.30;;;4.60;;
55800;SDS011;41730;51.960;20.158;2023-10-09T08:47:18;13.20;;;5.30;;
55800;SDS011;41730;51.960;20.158;2023-10-09T08:49:51;12.00;;;4.90;;
55800;SDS011;41730;51.960;20.158;2023-10-09T08:52:24;9.80;;;4.80;;
55800;SDS011;41730;51.960;20.158;2023-10-09T08:54:57;8.70;;;4.30;;
55800;SDS011;41730;51.960;20.158;2023-10-09T08:57:30;9.60;;;4.70;;
55800;SDS011;41730;51.960;20.158;2023-10-09T09:00:04;10.60;;;5.20;;
55800;SDS011;41730;51.960;20.158;2023-10-09T09:02:41;10.50;;;5.70;;
55800;SDS011;41730;51.960;20.158;2023-10-09T09:05:18;9.30;;;5.20;;
55800;SDS011;41730;51.960;20.158;2023-10-09T09:07:52;10.90;;;5.20;;
55800;SDS011;41730;51.960;20.158;2023-10-09T09:10:31;12.70;;;6.30;;
55800;SDS011;41730;51.960;20.158;2023-10-09T09:13:05;11.60;;;5.90;;
55800;SDS011;41730;51.960;20.158;2023-10-09T09:15:48;10.20;;;5.90;;
55800;SDS011;41730;51.960;20.158;2023-10-09T09:18:22;10.90;;;6.10;;
55800;SDS011;41730;51.960;20.158;2023-10-09T09:20:59;10.90;;;5.80;;
55800;SDS011;41730;51.960;20.158;2023-10-09T09:23:31;13.30;;;6.20;;
55800;SDS011;41730;51.960;20.158;2023-10-09T09:26:03;11.00;;;6.00;;
55800;SDS011;41730;51.960;20.158;2023-10-09T09:28:43;11.40;;;6.70;;
55800;SDS011;41730;51.960;20.158;2023-10-09T09:31:24;11.00;;;5.90;;
55800;SDS011;41730;51.960;20.158;2023-10-09T09:33:57;11.90;;;6.50;;
55800;SDS011;41730;51.960;20.158;2023-10-09T09:36:34;14.00;;;6.30;;
55800;SDS011;41730;51.960;20.158;2023-10-09T09:39:07;15.00;;;6.50;;
55800;SDS011;41730;51.960;20.158;2023-10-09T09:41:48;12.20;;;6.60;;
55800;SDS011;41730;51.960;20.158;2023-10-09T09:44:20;12.80;;;6.70;;
55800;SDS011;41730;51.960;20.158;2023-10-09T09:46:55;14.20;;;7.10;;
55800;SDS011;41730;51.960;20.158;2023-10-09T09:49:29;11.60;;;6.20;;
55800;SDS011;41730;51.960;20.158;2023-10-09T09:52:02;12.90;;;6.20;;
55800;SDS011;41730;51.960;20.158;2023-10-09T09:54:39;11.50;;;5.70;;
55800;SDS011;41730;51.960;20.158;2023-10-09T09:57:12;8.60;;;4.80;;
55800;SDS011;41730;51.960;20.158;2023-10-09T09:59:54;8.20;;;5.00;;
55800;SDS011;41730;51.960;20.158;2023-10-09T10:02:30;9.00;;;4.60;;
55800;SDS011;41730;51.960;20.158;2023-10-09T10:05:08;9.50;;;5.40;;
55800;SDS011;41730;51.960;20.158;2023-10-09T10:07:44;7.80;;;4.60;;
55800;SDS011;41730;51.960;20.158;2023-10-09T10:10:36;8.10;;;4.50;;
55800;SDS011;41730;51.960;20.158;2023-10-09T10:13:16;8.10;;;4.30;;
55800;SDS011;41730;51.960;20.158;2023-10-09T10:16:08;6.50;;;3.30;;
55800;SDS011;41730;51.960;20.158;2023-10-09T10:18:55;7.40;;;3.90;;
55800;SDS011;41730;51.960;20.158;2023-10-09T10:21:36;8.50;;;4.40;;
55800;SDS011;41730;51.960;20.158;2023-10-09T10:27:25;7.30;;;3.80;;
55800;SDS011;41730;51.960;20.158;2023-10-09T10:33:05;6.90;;;3.40;;
55800;SDS011;41730;51.960;20.158;2023-10-09T10:35:41;7.00;;;3.40;;
55800;SDS011;41730;51.960;20.158;2023-10-09T10:38:28;6.50;;;3.20;;
55800;SDS011;41730;51.960;20.158;2023-10-09T10:41:15;7.10;;;3.70;;
55800;SDS011;41730;51.960;20.158;2023-10-09T10:46:28;6.60;;;3.10;;
55800;SDS011;41730;51.960;20.158;2023-10-09T10:49:10;6.10;;;3.00;;
55800;SDS011;41730;51.960;20.158;2023-10-09T10:51:54;5.80;;;2.90;;
55800;SDS011;41730;51.960;20.158;2023-10-09T10:54:49;6.40;;;3.10;;
55800;SDS011;41730;51.960;20.158;2023-10-09T10:57:37;6.40;;;2.70;;
55800;SDS011;41730;51.960;20.158;2023-10-09T11:00:30;5.50;;;2.40;;
55800;SDS011;41730;51.960;20.158;2023-10-09T11:03:21;6.70;;;2.70;;
55800;SDS011;41730;51.960;20.158;2023-10-09T11:06:02;5.50;;;3.10;;
55800;SDS011;41730;51.960;20.158;2023-10-09T11:08:47;6.80;;;2.90;;
55800;SDS011;41730;51.960;20.158;2023-10-09T11:11:23;4.00;;;2.60;;
55800;SDS011;41730;51.960;20.158;2023-10-09T11:14:10;4.80;;;2.60;;
55800;SDS011;41730;51.960;20.158;2023-10-09T11:16:44;4.80;;;2.50;;
55800;SDS011;41730;51.960;20.158;2023-10-09T11:19:20;4.80;;;2.50;;
55800;SDS011;41730;51.960;20.158;2023-10-09T11:22:00;7.20;;;3.90;;
55800;SDS011;41730;51.960;20.158;2023-10-09T11:24:51;7.60;;;3.90;;
55800;SDS011;41730;51.960;20.158;2023-10-09T11:27:41;9.40;;;4.40;;
55800;SDS011;41730;51.960;20.158;2023-10-09T11:30:19;10.80;;;4.90;;
55800;SDS011;41730;51.960;20.158;2023-10-09T11:33:05;8.40;;;3.70;;
55800;SDS011;41730;51.960;20.158;2023-10-09T11:35:52;11.50;;;4.10;;
55800;SDS011;41730;51.960;20.158;2023-10-09T11:38:36;9.40;;;4.20;;
55800;SDS011;41730;51.960;20.158;2023-10-09T11:41:15;7.10;;;3.60;;
55800;SDS011;41730;51.960;20.158;2023-10-09T11:43:52;5.70;;;3.20;;
55800;SDS011;41730;51.960;20.158;2023-10-09T11:46:26;5.90;;;3.30;;
55800;SDS011;41730;51.960;20.158;2023-10-09T11:49:18;5.70;;;2.70;;
55800;SDS011;41730;51.960;20.158;2023-10-09T11:52:09;8.20;;;4.20;;
55800;SDS011;41730;51.960;20.158;2023-10-09T11:54:58;8.50;;;4.20;;
55800;SDS011;41730;51.960;20.158;2023-10-09T11:57:31;8.30;;;4.50;;
55800;SDS011;41730;51.960;20.158;2023-10-09T12:00:04;7.90;;;4.60;;
55800;SDS011;41730;51.960;20.158;2023-10-09T12:02:54;8.80;;;4.40;;
55800;SDS011;41730;51.960;20.158;2023-10-09T12:05:33;11.00;;;4.90;;
55800;SDS011;41730;51.960;20.158;2023-10-09T12:08:07;7.80;;;4.40;;
55800;SDS011;41730;51.960;20.158;2023-10-09T12:10:42;10.20;;;4.50;;
55800;SDS011;41730;51.960;20.158;2023-10-09T12:13:16;11.80;;;3.90;;
55800;SDS011;41730;51.960;20.158;2023-10-09T12:15:51;10.00;;;4.20;;
55800;SDS011;41730;51.960;20.158;2023-10-09T12:18:23;9.60;;;4.50;;
55800;SDS011;41730;51.960;20.158;2023-10-09T12:20:57;9.00;;;4.20;;
55800;SDS011;41730;51.960;20.158;2023-10-09T12:23:32;7.20;;;4.00;;
55800;SDS011;41730;51.960;20.158;2023-10-09T12:26:05;8.10;;;4.00;;
55800;SDS011;41730;51.960;20.158;2023-10-09T12:28:44;7.80;;;4.40;;
55800;SDS011;41730;51.960;20.158;2023-10-09T12:31:18;8.90;;;4.10;;
55800;SDS011;41730;51.960;20.158;2023-10-09T12:33:52;9.10;;;4.50;;
55800;SDS011;41730;51.960;20.158;2023-10-09T12:36:27;7.60;;;3.60;;
55800;SDS011;41730;51.960;20.158;2023-10-09T12:39:06;6.70;;;3.70;;
55800;SDS011;41730;51.960;20.158;2023-10-09T12:41:46;6.40;;;3.60;;
55800;SDS011;41730;51.960;20.158;2023-10-09T12:44:21;6.30;;;3.30;;
55800;SDS011;41730;51.960;20.158;2023-10-09T12:46:55;6.60;;;3.40;;
55800;SDS011;41730;51.960;20.158;2023-10-09T12:49:32;5.50;;;2.60;;
55800;SDS011;41730;51.960;20.158;2023-10-09T12:52:06;4.00;;;2.30;;
55800;SDS011;41730;51.960;20.158;2023-10-09T12:54:44;4.80;;;2.60;;
55800;SDS011;41730;51.960;20.158;2023-10-09T12:57:16;4.20;;;2.10;;
55800;SDS011;41730;51.960;20.158;2023-10-09T12:59:48;5.00;;;2.30;;
55800;SDS011;41730;51.960;20.158;2023-10-09T13:02:21;3.70;;;2.20;;
55800;SDS011;41730;51.960;20.158;2023-10-09T13:04:58;4.70;;;2.40;;
55800;SDS011;41730;51.960;20.158;2023-10-09T13:07:34;5.80;;;2.90;;
55800;SDS011;41730;51.960;20.158;2023-10-09T13:10:07;6.10;;;2.50;;
55800;SDS011;41730;51.960;20.158;2023-10-09T13:12:41;7.40;;;4.20;;
55800;SDS011;41730;51.960;20.158;2023-10-09T13:15:13;5.70;;;2.90;;
55800;SDS011;41730;51.960;20.158;2023-10-09T13:17:49;5.50;;;2.90;;
55800;SDS011;41730;51.960;20.158;2023-10-09T13:20:21;6.10;;;3.00;;
55800;SDS011;41730;51.960;20.158;2023-10-09T13:22:55;8.10;;;4.40;;
55800;SDS011;41730;51.960;20.158;2023-10-09T13:25:26;8.30;;;3.70;;
55800;SDS011;41730;51.960;20.158;2023-10-09T13:28:08;5.00;;;2.40;;
55800;SDS011;41730;51.960;20.158;2023-10-09T13:30:49;19.80;;;12.40;;
55800;SDS011;41730;51.960;20.158;2023-10-09T13:33:21;16.40;;;8.70;;
55800;SDS011;41730;51.960;20.158;2023-10-09T13:35:55;21.40;;;12.90;;
55800;SDS011;41730;51.960;20.158;2023-10-09T13:38:28;9.50;;;4.30;;
55800;SDS011;41730;51.960;20.158;2023-10-09T13:41:00;10.50;;;5.60;;
55800;SDS011;41730;51.960;20.158;2023-10-09T13:43:33;7.00;;;4.20;;
55800;SDS011;41730;51.960;20.158;2023-10-09T13:46:09;7.20;;;2.80;;
55800;SDS011;41730;51.960;20.158;2023-10-09T13:48:43;5.20;;;2.90;;
55800;SDS011;41730;51.960;20.158;2023-10-09T13:51:17;4.40;;;2.10;;
55800;SDS011;41730;51.960;20.158;2023-10-09T13:56:22;5.40;;;2.40;;
55800;SDS011;41730;51.960;20.158;2023-10-09T13:58:55;5.40;;;2.40;;
55800;SDS011;41730;51.960;20.158;2023-10-09T14:01:29;4.90;;;2.50;;
55800;SDS011;41730;51.960;20.158;2023-10-09T14:04:02;5.30;;;2.40;;
55800;SDS011;41730;51.960;20.158;2023-10-09T14:06:35;7.30;;;3.20;;
55800;SDS011;41730;51.960;20.158;2023-10-09T14:09:13;5.30;;;2.70;;
55800;SDS011;41730;51.960;20.158;2023-10-09T14:12:00;6.50;;;2.80;;
55800;SDS011;41730;51.960;20.158;2023-10-09T14:14:38;5.20;;;2.70;;
55800;SDS011;41730;51.960;20.158;2023-10-09T14:17:16;5.10;;;2.90;;
55800;SDS011;41730;51.960;20.158;2023-10-09T14:19:52;3.30;;;2.20;;
55800;SDS011;41730;51.960;20.158;2023-10-09T14:22:29;4.90;;;2.40;;
55800;SDS011;41730;51.960;20.158;2023-10-09T14:25:07;4.70;;;2.50;;
55800;SDS011;41730;51.960;20.158;2023-10-09T14:27:44;6.70;;;3.10;;
55800;SDS011;41730;51.960;20.158;2023-10-09T14:30:16;4.20;;;2.10;;
55800;SDS011;41730;51.960;20.158;2023-10-09T14:32:59;5.10;;;2.80;;
55800;SDS011;41730;51.960;20.158;2023-10-09T14:35:33;5.20;;;2.70;;
55800;SDS011;41730;51.960;20.158;2023-10-09T14:40:44;5.70;;;3.00;;
55800;SDS011;41730;51.960;20.158;2023-10-09T14:43:16;4.40;;;2.90;;
55800;SDS011;41730;51.960;20.158;2023-10-09T14:45:48;6.00;;;2.70;;
55800;SDS011;41730;51.960;20.158;2023-10-09T14:48:22;4.40;;;2.70;;
55800;SDS011;41730;51.960;20.158;2023-10-09T14:50:57;5.80;;;3.10;;
55800;SDS011;41730;51.960;20.158;2023-10-09T14:53:33;6.40;;;2.80;;
55800;SDS011;41730;51.960;20.158;2023-10-09T14:56:05;4.80;;;2.70;;
55800;SDS011;41730;51.960;20.158;2023-10-09T14:58:38;5.60;;;2.60;;
55800;SDS011;41730;51.960;20.158;2023-10-09T15:01:10;4.40;;;2.40;;
55800;SDS011;41730;51.960;20.158;2023-10-09T15:03:46;5.70;;;3.10;;
55800;SDS011;41730;51.960;20.158;2023-10-09T15:06:21;5.60;;;2.80;;
55800;SDS011;41730;51.960;20.158;2023-10-09T15:11:27;5.90;;;2.50;;
55800;SDS011;41730;51.960;20.158;2023-10-09T15:13:59;4.80;;;3.00;;
55800;SDS011;41730;51.960;20.158;2023-10-09T15:16:33;5.30;;;3.00;;
55800;SDS011;41730;51.960;20.158;2023-10-09T15:19:08;5.90;;;3.30;;
55800;SDS011;41730;51.960;20.158;2023-10-09T15:21:40;6.20;;;2.90;;
55800;SDS011;41730;51.960;20.158;2023-10-09T15:24:14;8.40;;;4.00;;
55800;SDS011;41730;51.960;20.158;2023-10-09T15:26:48;8.10;;;4.90;;
55800;SDS011;41730;51.960;20.158;2023-10-09T15:29:22;8.30;;;4.00;;
55800;SDS011;41730;51.960;20.158;2023-10-09T15:31:56;7.80;;;3.80;;
55800;SDS011;41730;51.960;20.158;2023-10-09T15:34:33;7.30;;;3.60;;
55800;SDS011;41730;51.960;20.158;2023-10-09T15:37:05;7.20;;;3.20;;
55800;SDS011;41730;51.960;20.158;2023-10-09T15:39:37;5.60;;;3.40;;
55800;SDS011;41730;51.960;20.158;2023-10-09T15:42:10;6.90;;;3.40;;
55800;SDS011;41730;51.960;20.158;2023-10-09T15:44:42;7.30;;;3.10;;
55800;SDS011;41730;51.960;20.158;2023-10-09T15:47:16;5.90;;;3.20;;
55800;SDS011;41730;51.960;20.158;2023-10-09T15:49:50;5.00;;;3.20;;
55800;SDS011;41730;51.960;20.158;2023-10-09T15:52:22;7.20;;;3.40;;
55800;SDS011;41730;51.960;20.158;2023-10-09T15:54:56;5.70;;;3.80;;
55800;SDS011;41730;51.960;20.158;2023-10-09T15:57:29;6.40;;;3.40;;
55800;SDS011;41730;51.960;20.158;2023-10-09T16:00:01;7.60;;;3.40;;
55800;SDS011;41730;51.960;20.158;2023-10-09T16:02:42;6.10;;;3.60;;